createdAt,value
2022-12-14T00:02:08.199Z,24.49
2022-12-14T00:04:56.945Z,24.57
2022-12-14T00:07:45.812Z,24.58
2022-12-14T00:10:39.047Z,24.10
2022-12-14T00:13:27.688Z,24.04
2022-12-14T00:16:19.341Z,23.90
2022-12-14T00:19:08.072Z,23.88
2022-12-14T00:21:56.649Z,23.82
2022-12-14T00:24:45.309Z,23.67
2022-12-14T00:27:34.068Z,23.48
2022-12-14T00:30:22.796Z,23.47
2022-12-14T00:33:12.743Z,23.38
2022-12-14T00:36:01.511Z,23.38
2022-12-14T00:38:50.120Z,23.35
2022-12-14T00:41:38.795Z,23.30
2022-12-14T00:44:27.436Z,23.26
2022-12-14T00:47:16.019Z,23.24
2022-12-14T00:50:06.612Z,23.25
2022-12-14T00:52:55.268Z,23.21
2022-12-14T00:55:49.391Z,23.24
2022-12-14T00:58:38.293Z,23.22
2022-12-14T01:01:26.999Z,23.18
2022-12-14T01:04:19.459Z,23.19
2022-12-14T01:07:09.505Z,23.16
2022-12-14T01:09:58.138Z,23.16
2022-12-14T01:12:46.752Z,23.18
2022-12-14T01:15:37.123Z,23.14
2022-12-14T01:18:25.874Z,23.14
2022-12-14T01:21:16.361Z,23.12
2022-12-14T01:24:07.060Z,23.07
2022-12-14T01:26:55.741Z,23.09
2022-12-14T01:29:44.724Z,23.09
2022-12-14T01:32:33.308Z,23.09
2022-12-14T01:35:21.993Z,23.08
2022-12-14T01:38:10.547Z,23.01
2022-12-14T01:41:00.614Z,23.04
2022-12-14T01:43:51.424Z,23.01
2022-12-14T01:46:43.864Z,23.04
2022-12-14T01:49:36.595Z,23.09
2022-12-14T01:52:28.362Z,23.02
2022-12-14T01:55:19.674Z,23.01
2022-12-14T01:58:13.512Z,23.11
2022-12-14T02:01:03.014Z,23.07
2022-12-14T02:03:53.513Z,23.01
2022-12-14T02:06:44.057Z,23.01
2022-12-14T02:09:35.393Z,23.02
2022-12-14T02:12:29.276Z,22.99
2022-12-14T02:15:19.707Z,22.95
2022-12-14T02:18:12.962Z,23.00
2022-12-14T02:21:17.829Z,22.89
2022-12-14T02:24:29.409Z,22.98
2022-12-14T02:27:29.105Z,22.93
2022-12-14T02:30:20.301Z,22.93
2022-12-14T02:33:29.902Z,22.89
2022-12-14T02:36:22.825Z,22.87
2022-12-14T02:39:17.659Z,22.81
2022-12-14T02:42:10.115Z,22.83
2022-12-14T02:45:04.567Z,22.86
2022-12-14T02:47:57.852Z,22.83
2022-12-14T02:50:53.163Z,22.81
2022-12-14T02:53:45.576Z,22.81
2022-12-14T02:56:38.735Z,22.84
2022-12-14T02:59:27.762Z,22.82
2022-12-14T03:02:16.480Z,22.80
2022-12-14T03:05:07.407Z,22.85
2022-12-14T03:07:57.843Z,22.85
2022-12-14T03:10:50.084Z,22.81
2022-12-14T03:13:40.987Z,22.80
2022-12-14T03:16:33.986Z,22.79
2022-12-14T03:19:25.495Z,22.79
2022-12-14T03:22:20.141Z,22.80
2022-12-14T03:25:12.227Z,22.80
2022-12-14T03:28:04.349Z,22.80
2022-12-14T03:31:00.552Z,22.77
2022-12-14T03:33:50.703Z,22.77
2022-12-14T03:36:43.261Z,22.78
2022-12-14T03:39:35.370Z,22.80
2022-12-14T03:42:26.215Z,22.78
2022-12-14T03:45:20.130Z,22.75
2022-12-14T03:48:15.486Z,22.69
2022-12-14T03:51:10.421Z,22.70
2022-12-14T03:54:05.832Z,22.72
2022-12-14T03:56:57.998Z,22.73
2022-12-14T03:59:51.118Z,22.74
2022-12-14T04:02:43.435Z,22.74
2022-12-14T04:05:36.091Z,22.70
2022-12-14T04:08:29.642Z,22.67
2022-12-14T04:11:36.226Z,22.65
2022-12-14T04:14:48.271Z,22.65
2022-12-14T04:17:56.113Z,22.70
2022-12-14T04:20:47.998Z,22.67
2022-12-14T04:23:58.193Z,22.70
2022-12-14T04:26:52.370Z,22.66
2022-12-14T04:29:58.168Z,22.64
2022-12-14T04:32:49.799Z,22.64
2022-12-14T04:35:40.593Z,22.64
2022-12-14T04:38:36.697Z,22.66
2022-12-14T04:41:27.722Z,22.67
2022-12-14T04:44:19.377Z,22.67
2022-12-14T04:47:11.466Z,22.72
2022-12-14T04:50:03.282Z,22.67
2022-12-14T04:52:54.875Z,22.69
2022-12-14T04:55:47.769Z,22.74
2022-12-14T04:58:38.348Z,22.76
2022-12-14T05:01:37.190Z,22.75
2022-12-14T05:04:36.299Z,22.68
2022-12-14T05:07:38.076Z,22.74
2022-12-14T05:10:32.642Z,22.72
2022-12-14T05:13:24.713Z,22.66
2022-12-14T05:16:13.744Z,22.64
2022-12-14T05:19:02.434Z,22.66
2022-12-14T05:21:52.364Z,22.75
2022-12-14T05:24:41.061Z,22.86
2022-12-14T05:27:29.605Z,22.78
2022-12-14T05:30:18.574Z,22.66
2022-12-14T05:33:07.451Z,22.59
2022-12-14T05:35:56.087Z,22.54
2022-12-14T05:38:46.051Z,22.72
2022-12-14T05:41:34.633Z,22.73
2022-12-14T05:44:23.282Z,22.63
2022-12-14T05:47:11.887Z,22.50
2022-12-14T05:50:00.646Z,22.53
2022-12-14T05:52:49.268Z,22.52
2022-12-14T05:55:39.167Z,22.53
2022-12-14T05:58:27.831Z,22.51
2022-12-14T06:01:19.350Z,22.45
2022-12-14T06:04:08.447Z,22.46
2022-12-14T06:06:57.157Z,22.43
2022-12-14T06:09:45.772Z,22.44
2022-12-14T06:12:35.777Z,22.47
2022-12-14T06:15:27.195Z,22.51
2022-12-14T06:18:18.853Z,22.48
2022-12-14T06:21:07.548Z,22.53
2022-12-14T06:23:56.784Z,22.50
2022-12-14T06:26:45.682Z,22.46
2022-12-14T06:29:35.619Z,22.49
2022-12-14T06:32:24.724Z,22.50
2022-12-14T06:35:13.549Z,22.50
2022-12-14T06:38:02.117Z,22.45
2022-12-14T06:40:50.721Z,22.45
2022-12-14T06:43:39.348Z,22.50
2022-12-14T06:46:29.319Z,22.52
2022-12-14T06:49:17.951Z,22.48
2022-12-14T06:52:06.987Z,22.48
2022-12-14T06:54:55.986Z,22.47
2022-12-14T06:57:44.639Z,22.46
2022-12-14T07:00:33.309Z,22.46
2022-12-14T07:03:23.293Z,22.48
2022-12-14T07:06:12.120Z,22.47
2022-12-14T07:09:04.450Z,22.42
2022-12-14T07:11:53.022Z,22.46
2022-12-14T07:14:41.637Z,22.46
2022-12-14T07:17:30.313Z,22.42
2022-12-14T07:20:20.518Z,22.44
2022-12-14T07:23:09.154Z,22.41
2022-12-14T07:26:03.350Z,22.42
2022-12-14T07:28:52.990Z,22.42
2022-12-14T07:31:41.560Z,22.43
2022-12-14T07:34:30.232Z,22.45
2022-12-14T07:37:20.557Z,22.44
2022-12-14T07:40:10.969Z,22.40
2022-12-14T07:42:59.699Z,22.46
2022-12-14T07:45:48.388Z,22.50
2022-12-14T07:48:37.416Z,22.45
2022-12-14T07:51:27.934Z,22.48
2022-12-14T07:54:18.110Z,22.48
2022-12-14T07:57:06.645Z,22.49
2022-12-14T07:59:57.563Z,22.50
2022-12-14T08:02:46.580Z,22.54
2022-12-14T08:05:35.408Z,22.58
2022-12-14T08:08:24.018Z,23.00
2022-12-14T08:11:15.042Z,23.34
2022-12-14T08:14:05.758Z,23.54
2022-12-14T08:16:54.523Z,23.59
2022-12-14T08:19:43.363Z,23.82
2022-12-14T08:22:32.048Z,23.66
2022-12-14T08:25:21.083Z,23.18
2022-12-14T08:28:11.525Z,22.98
2022-12-14T08:31:05.683Z,22.97
2022-12-14T08:33:54.388Z,22.98
2022-12-14T08:36:43.030Z,23.00
2022-12-14T08:39:31.574Z,22.96
2022-12-14T08:42:20.331Z,22.95
2022-12-14T08:45:11.225Z,23.01
2022-12-14T08:48:00.227Z,22.93
2022-12-14T08:50:49.970Z,22.93
2022-12-14T08:53:39.600Z,22.89
2022-12-14T08:56:29.333Z,22.95
2022-12-14T08:59:43.907Z,22.93
2022-12-14T09:02:28.029Z,22.95
2022-12-14T09:05:17.002Z,22.88
2022-12-14T09:08:06.042Z,22.94
2022-12-14T09:10:54.701Z,22.96
2022-12-14T09:13:43.986Z,22.93
2022-12-14T09:16:32.706Z,22.95
2022-12-14T09:19:22.877Z,22.98
2022-12-14T09:22:13.320Z,23.09
2022-12-14T09:25:01.963Z,23.05
2022-12-14T09:27:50.956Z,23.00
2022-12-14T09:30:39.673Z,23.01
2022-12-14T09:33:29.974Z,23.03
2022-12-14T09:36:22.008Z,22.98
2022-12-14T09:39:14.638Z,22.95
2022-12-14T09:42:11.422Z,22.95
2022-12-14T09:45:04.045Z,22.99
2022-12-14T09:47:58.091Z,22.91
2022-12-14T09:50:48.047Z,22.90
2022-12-14T09:53:41.223Z,23.03
2022-12-14T09:56:29.900Z,22.91
2022-12-14T09:59:20.815Z,22.89
2022-12-14T10:02:41.490Z,22.86
2022-12-14T10:05:43.329Z,22.88
2022-12-14T10:08:36.397Z,22.86
2022-12-14T10:11:33.789Z,22.88
2022-12-14T10:14:25.452Z,22.83
2022-12-14T10:17:23.805Z,22.84
2022-12-14T10:20:18.516Z,22.81
2022-12-14T10:23:09.726Z,22.79
2022-12-14T10:26:03.533Z,22.80
2022-12-14T10:29:01.257Z,22.76
2022-12-14T10:31:59.515Z,22.76
2022-12-14T10:34:48.411Z,22.76
2022-12-14T10:37:40.508Z,22.72
2022-12-14T10:40:34.144Z,22.72
2022-12-14T10:43:34.000Z,22.67
2022-12-14T10:46:31.411Z,22.69
2022-12-14T10:49:26.057Z,22.67
2022-12-14T10:52:18.666Z,22.70
2022-12-14T10:55:14.765Z,22.71
2022-12-14T10:58:03.626Z,22.69
2022-12-14T11:00:55.190Z,22.72
2022-12-14T11:03:48.442Z,22.74
2022-12-14T11:06:37.133Z,22.72
2022-12-14T11:09:26.432Z,22.70
2022-12-14T11:12:23.980Z,22.73
2022-12-14T11:15:24.916Z,22.73
2022-12-14T11:18:25.673Z,22.84
2022-12-14T11:21:17.331Z,22.82
2022-12-14T11:24:06.895Z,22.77
2022-12-14T11:26:57.458Z,22.82
2022-12-14T11:29:47.644Z,22.81
2022-12-14T11:32:36.329Z,22.78
2022-12-14T11:35:25.614Z,22.86
2022-12-14T11:38:16.420Z,22.79
2022-12-14T11:41:11.525Z,22.81
2022-12-14T11:44:08.435Z,22.86
2022-12-14T11:47:04.716Z,22.83
2022-12-14T11:49:55.313Z,22.90
2022-12-14T11:52:44.198Z,22.91
2022-12-14T11:55:35.573Z,22.91
2022-12-14T11:58:25.737Z,22.79
2022-12-14T12:01:16.610Z,22.85
2022-12-14T12:04:07.108Z,22.86
2022-12-14T12:07:00.110Z,22.80
2022-12-14T12:09:51.771Z,22.74
2022-12-14T12:12:54.573Z,22.75
2022-12-14T12:15:49.890Z,22.77
2022-12-14T12:18:46.202Z,22.75
2022-12-14T12:21:37.688Z,22.71
2022-12-14T12:24:32.005Z,22.74
2022-12-14T12:27:23.794Z,22.79
2022-12-14T12:30:22.348Z,22.79
2022-12-14T12:33:23.088Z,22.78
2022-12-14T12:36:11.876Z,22.84
2022-12-14T12:39:05.989Z,22.75
2022-12-14T12:42:05.243Z,22.84
2022-12-14T12:45:00.048Z,22.87
2022-12-14T12:47:51.905Z,22.92
2022-12-14T12:50:44.369Z,22.90
2022-12-14T12:53:41.455Z,22.92
2022-12-14T12:56:36.658Z,23.02
2022-12-14T12:59:37.327Z,22.96
2022-12-14T13:02:32.136Z,23.07
2022-12-14T13:08:37.439Z,22.98
2022-12-14T13:11:30.914Z,22.96
2022-12-14T13:14:23.255Z,22.94
2022-12-14T13:17:25.324Z,22.96
2022-12-14T13:20:22.941Z,23.01
2022-12-14T13:23:43.082Z,22.90
2022-12-14T13:26:56.841Z,23.01
2022-12-14T13:29:50.187Z,22.92
2022-12-14T13:32:48.946Z,22.92
2022-12-14T13:35:49.478Z,22.86
2022-12-14T13:39:08.613Z,22.90
2022-12-14T13:42:02.629Z,22.91
2022-12-14T13:44:57.781Z,22.80
2022-12-14T13:47:51.445Z,22.85
2022-12-14T13:50:52.991Z,22.93
2022-12-14T13:53:54.864Z,22.92
2022-12-14T13:56:43.525Z,22.83
2022-12-14T13:59:34.857Z,22.91
2022-12-14T14:02:41.626Z,22.91
2022-12-14T14:05:46.857Z,22.87
2022-12-14T14:08:41.667Z,22.86
2022-12-14T14:11:47.135Z,22.86
2022-12-14T14:14:45.525Z,22.87
2022-12-14T14:17:39.874Z,22.82
2022-12-14T14:20:40.984Z,22.87
2022-12-14T14:23:33.384Z,22.88
2022-12-14T14:26:30.110Z,22.84
2022-12-14T14:29:27.715Z,22.85
2022-12-14T14:32:46.988Z,22.85
2022-12-14T14:35:37.460Z,22.82
2022-12-14T14:38:29.324Z,22.74
2022-12-14T14:41:26.392Z,22.69
2022-12-14T14:44:23.037Z,22.60
2022-12-14T14:47:17.526Z,22.60
2022-12-14T14:50:09.275Z,22.64
2022-12-14T14:53:17.783Z,22.61
2022-12-14T14:56:44.887Z,22.58
2022-12-14T14:59:50.577Z,22.63
2022-12-14T15:02:42.594Z,22.56
2022-12-14T15:05:43.273Z,22.57
2022-12-14T15:08:35.394Z,22.51
2022-12-14T15:11:25.289Z,22.51
2022-12-14T15:14:27.192Z,22.51
2022-12-14T15:17:22.965Z,22.51
2022-12-14T15:20:22.355Z,22.50
2022-12-14T15:23:16.256Z,22.57
2022-12-14T15:26:09.162Z,22.56
2022-12-14T15:29:04.548Z,22.58
2022-12-14T15:31:59.633Z,22.61
2022-12-14T15:34:54.970Z,22.75
2022-12-14T15:37:46.613Z,22.75
2022-12-14T15:40:35.732Z,22.74
2022-12-14T15:43:25.879Z,22.83
2022-12-14T15:46:18.604Z,22.89
2022-12-14T15:49:09.164Z,23.13
2022-12-14T15:52:00.811Z,23.00
2022-12-14T15:54:49.736Z,22.95
2022-12-14T15:57:40.289Z,23.13
2022-12-14T16:00:29.451Z,23.17
2022-12-14T16:03:24.922Z,23.23
2022-12-14T16:06:14.374Z,23.36
2022-12-14T16:09:07.884Z,23.31
2022-12-14T16:11:57.895Z,23.24
2022-12-14T16:14:48.466Z,23.27
2022-12-14T16:17:38.236Z,23.29
2022-12-14T16:20:29.540Z,23.21
2022-12-14T16:23:29.784Z,23.19
2022-12-14T16:26:25.830Z,23.11
2022-12-14T16:29:22.907Z,23.03
2022-12-14T16:32:17.130Z,22.98
2022-12-14T16:35:06.320Z,22.98
2022-12-14T16:37:56.505Z,22.96
2022-12-14T16:40:54.898Z,23.24
2022-12-14T16:43:57.708Z,23.33
2022-12-14T16:46:57.409Z,23.47
2022-12-14T16:49:56.323Z,23.65
2022-12-14T16:52:45.043Z,23.72
2022-12-14T16:55:33.781Z,23.84
2022-12-14T16:58:22.486Z,23.99
2022-12-14T17:01:12.727Z,24.00
2022-12-14T17:04:04.217Z,24.09
2022-12-14T17:06:57.261Z,24.14
2022-12-14T17:09:45.887Z,24.23
2022-12-14T17:12:34.698Z,24.26
2022-12-14T17:15:24.866Z,24.23
2022-12-14T17:18:14.853Z,24.13
2022-12-14T17:21:03.901Z,24.06
2022-12-14T17:23:52.775Z,24.10
2022-12-14T17:26:41.466Z,24.04
2022-12-14T17:29:33.211Z,24.04
2022-12-14T17:32:21.879Z,24.12
2022-12-14T17:35:17.741Z,24.04
2022-12-14T17:38:10.919Z,24.01
2022-12-14T17:40:59.647Z,24.15
2022-12-14T17:43:52.468Z,24.04
2022-12-14T17:46:45.182Z,23.84
2022-12-14T17:49:37.113Z,24.02
2022-12-14T17:52:32.002Z,23.93
2022-12-14T17:55:22.743Z,23.93
2022-12-14T17:58:11.952Z,23.91
2022-12-14T18:01:04.619Z,23.89
2022-12-14T18:03:53.647Z,23.85
2022-12-14T18:06:42.410Z,23.81
2022-12-14T18:09:35.882Z,23.78
2022-12-14T18:12:25.848Z,23.71
2022-12-14T18:15:18.959Z,23.62
2022-12-14T18:18:07.802Z,23.67
2022-12-14T18:20:58.597Z,23.65
2022-12-14T18:23:49.634Z,23.52
2022-12-14T18:26:40.581Z,23.42
2022-12-14T18:29:29.244Z,23.45
2022-12-14T18:32:17.879Z,23.62
2022-12-14T18:35:07.363Z,23.61
2022-12-14T18:37:56.024Z,23.70
2022-12-14T18:40:49.770Z,23.78
2022-12-14T18:43:43.657Z,23.77
2022-12-14T18:46:32.891Z,23.78
2022-12-14T18:49:21.621Z,23.79
2022-12-14T18:52:11.746Z,23.89
2022-12-14T18:55:00.432Z,23.89
2022-12-14T18:57:51.532Z,24.06
2022-12-14T19:00:41.567Z,23.98
2022-12-14T19:03:34.067Z,23.90
2022-12-14T19:09:34.630Z,23.99
2022-12-14T19:12:23.310Z,23.82
2022-12-14T19:15:15.888Z,23.77
2022-12-14T19:18:05.967Z,23.78
2022-12-14T19:20:54.578Z,23.70
2022-12-14T19:23:43.212Z,23.88
2022-12-14T19:26:32.204Z,23.89
2022-12-14T19:29:21.582Z,24.00
2022-12-14T19:32:11.578Z,24.15
2022-12-14T19:35:01.716Z,24.19
2022-12-14T19:37:50.719Z,24.25
2022-12-14T19:40:39.652Z,24.33
2022-12-14T19:43:28.766Z,24.26
2022-12-14T19:46:18.450Z,24.36
2022-12-14T19:49:09.416Z,24.29
2022-12-14T19:51:59.683Z,24.34
2022-12-14T19:54:48.357Z,24.31
2022-12-14T19:57:37.238Z,24.30
2022-12-14T20:00:25.825Z,24.20
2022-12-14T20:03:14.703Z,24.26
2022-12-14T20:06:05.997Z,24.25
2022-12-14T20:08:59.726Z,24.38
2022-12-14T20:11:48.437Z,24.21
2022-12-14T20:14:39.757Z,24.22
2022-12-14T20:17:28.535Z,24.20
2022-12-14T20:20:17.287Z,24.05
2022-12-14T20:23:06.050Z,24.10
2022-12-14T20:26:01.575Z,24.01
2022-12-14T20:28:50.833Z,24.03
2022-12-14T20:31:39.698Z,23.90
2022-12-14T20:34:29.055Z,23.80
2022-12-14T20:37:20.821Z,23.88
2022-12-14T20:40:11.114Z,23.88
2022-12-14T20:43:01.103Z,24.11
2022-12-14T20:45:49.737Z,24.18
2022-12-14T20:48:38.504Z,24.19
2022-12-14T20:51:27.219Z,24.27
2022-12-14T20:54:18.203Z,24.25
2022-12-14T20:57:06.830Z,24.24
2022-12-14T20:59:59.403Z,24.18
2022-12-14T21:02:48.282Z,24.22
2022-12-14T21:05:41.700Z,24.18
2022-12-14T21:08:31.653Z,24.09
2022-12-14T21:11:37.906Z,24.06
2022-12-14T21:14:27.876Z,24.35
2022-12-14T21:17:17.896Z,24.16
2022-12-14T21:20:07.657Z,24.11
2022-12-14T21:22:56.363Z,24.11
2022-12-14T21:25:45.098Z,23.93
2022-12-14T21:28:34.162Z,23.88
2022-12-14T21:31:23.329Z,24.06
2022-12-14T21:34:15.539Z,24.15
2022-12-14T21:37:04.645Z,24.19
2022-12-14T21:39:54.498Z,24.11
2022-12-14T21:42:42.938Z,24.34
2022-12-14T21:45:31.700Z,24.30
2022-12-14T21:48:20.437Z,24.14
2022-12-14T21:51:11.479Z,24.07
2022-12-14T21:54:00.092Z,24.09
2022-12-14T21:57:06.339Z,24.08
2022-12-14T21:59:55.928Z,24.25
2022-12-14T22:02:44.766Z,24.22
2022-12-14T22:05:33.546Z,24.24
2022-12-14T22:08:23.570Z,24.11
2022-12-14T22:11:12.308Z,24.06
2022-12-14T22:14:02.336Z,24.08
2022-12-14T22:16:51.468Z,24.13
2022-12-14T22:19:40.295Z,23.93
2022-12-14T22:22:28.990Z,23.82
2022-12-14T22:25:19.038Z,23.74
2022-12-14T22:28:07.783Z,23.84
2022-12-14T22:30:56.528Z,24.03
2022-12-14T22:33:45.832Z,24.07
2022-12-14T22:36:38.457Z,23.93
2022-12-14T22:39:27.327Z,23.98
2022-12-14T22:42:17.620Z,24.06
2022-12-14T22:45:07.096Z,24.06
2022-12-14T22:47:55.790Z,23.88
2022-12-14T22:50:44.462Z,23.95
2022-12-14T22:53:33.491Z,23.92
2022-12-14T22:56:24.277Z,23.90
2022-12-14T22:59:16.341Z,23.94
2022-12-14T23:02:05.368Z,23.99
2022-12-14T23:04:54.108Z,23.87
2022-12-14T23:07:43.429Z,23.83
2022-12-14T23:10:50.067Z,23.90
2022-12-14T23:13:56.562Z,23.87
2022-12-14T23:17:03.967Z,23.83
2022-12-14T23:20:10.726Z,23.89
2022-12-14T23:23:16.827Z,23.88
2022-12-14T23:26:23.970Z,23.82
2022-12-14T23:29:30.276Z,23.84
2022-12-14T23:32:37.831Z,23.80
2022-12-14T23:35:43.801Z,23.80
2022-12-14T23:38:50.001Z,23.74
2022-12-14T23:41:56.346Z,23.80
2022-12-14T23:45:02.464Z,23.82
2022-12-14T23:48:10.076Z,23.72
2022-12-14T23:51:16.174Z,23.65
2022-12-14T23:54:22.349Z,23.48
2022-12-14T23:57:28.702Z,23.45
